PWSweather.com
Personal Weather Stations
Station Observations
KNVELKO7
Elko, NV 89801

Elko, NV 89801

Lat: 40.963233, Lon: -115.592836

Elevation: 5230

Station Type: WS-2812

Latest ConditionsUpdated 6:38:28 AM PDT Thursday, Oct 30, 2014
Currently Today's Max Today's Min Today's Average
Temperature 25.9°F-3.4°C 34.4°F1.3°C 25.6°F-3.6°C 28.8°F-1.8°C
Dew Point 16.7°F-8.5°C 20.3°F-6.5°C 15.3°F-9.3°C 17.0°F-8.3°C
Winds 3.2 mph 5.1 kmh 6.7 mph 10.8 kmh - 1.7 mph 2.7 kmh
Wind Gusts 5.1 mph8.2 kmh 6.7 mph10.8 kmh - -
Humidity 68% 68% 53% 61%
Pressure 30.20 in1022.7 mb 30.22 in1023.4 mb 30.20 in1022.7 mb -
Hour Temp Dew Point Humidity Winds Wind Gusts Pressure Precip Precip Rate Daily Precip Total
06:38 AM 25.9°F-3.4°C 16.7°F-8.5°C 68% 3.2 mph 5.1 kmh 5.1 mph8.2 kmh 30.20 in1022.7 mb 0.00 in0.0 mm 0.00 in/hr0.0 mm/hr 0.00 in0.0 mm
06:33 AM 25.9°F-3.4°C 16.7°F-8.5°C 68% 4.7 mph ENE7.6 kmh ENE 5.1 mph8.2 kmh 30.20 in1022.7 mb 0.00 in0.0 mm 0.00 in/hr0.0 mm/hr 0.00 in0.0 mm
06:28 AM 25.7°F-3.5°C 16.6°F-8.6°C 68% 3.8 mph E6.1 kmh E 4.7 mph7.6 kmh 30.20 in1022.7 mb 0.00 in0.0 mm 0.00 in/hr0.0 mm/hr 0.00 in0.0 mm
06:23 AM 25.6°F-3.6°C 16.0°F-8.9°C 67% 2.0 mph ENE3.2 kmh ENE 3.1 mph5.0 kmh 30.20 in1022.7 mb 0.00 in0.0 mm 0.00 in/hr0.0 mm/hr 0.00 in0.0 mm
06:18 AM 25.6°F-3.6°C 15.7°F-9.1°C 66% 1.8 mph NNE2.9 kmh NNE 4.0 mph6.4 kmh 30.20 in1022.7 mb 0.00 in0.0 mm 0.00 in/hr0.0 mm/hr 0.00 in0.0 mm
06:13 AM 25.7°F-3.5°C 16.6°F-8.6°C 68% 2.3 mph ENE3.7 kmh ENE 4.0 mph6.4 kmh 30.20 in1022.7 mb 0.00 in0.0 mm 0.00 in/hr0.0 mm/hr 0.00 in0.0 mm
06:08 AM 25.7°F-3.5°C 15.8°F-9.0°C 66% 1.1 mph NE1.8 kmh NE 1.6 mph2.6 kmh 30.20 in1022.7 mb 0.00 in0.0 mm 0.00 in/hr0.0 mm/hr 0.00 in0.0 mm
06:03 AM 25.6°F-3.6°C 15.7°F-9.1°C 66% Calm Calm 0.7 mph1.1 kmh 30.20 in1022.7 mb 0.00 in0.0 mm 0.00 in/hr0.0 mm/hr 0.00 in0.0 mm
05:58 AM 25.7°F-3.5°C 15.8°F-9.0°C 66% Calm Calm 0.4 mph0.6 kmh 30.20 in1022.7 mb 0.00 in0.0 mm 0.00 in/hr0.0 mm/hr 0.00 in0.0 mm
05:53 AM 25.7°F-3.5°C 15.8°F-9.0°C 66% 0.4 mph NNE0.6 kmh NNE 0.4 mph0.6 kmh 30.20 in1022.7 mb 0.00 in0.0 mm 0.00 in/hr0.0 mm/hr 0.00 in0.0 mm
05:48 AM 25.9°F-3.4°C 16.0°F-8.9°C 66% Calm Calm 0.9 mph1.4 kmh 30.20 in1022.7 mb 0.00 in0.0 mm 0.00 in/hr0.0 mm/hr 0.00 in0.0 mm
05:43 AM 25.7°F-3.5°C 15.8°F-9.0°C 66% Calm Calm 2.5 mph4.0 kmh 30.20 in1022.7 mb 0.00 in0.0 mm 0.00 in/hr0.0 mm/hr 0.00 in0.0 mm
05:38 AM 25.7°F-3.5°C 15.8°F-9.0°C 66% 2.2 mph 3.5 kmh 2.5 mph4.0 kmh 30.20 in1022.7 mb 0.00 in0.0 mm 0.00 in/hr0.0 mm/hr 0.00 in0.0 mm
05:33 AM 25.9°F-3.4°C 15.7°F-9.1°C 65% 0.4 mph 0.6 kmh 2.5 mph4.0 kmh 30.20 in1022.7 mb 0.00 in0.0 mm 0.00 in/hr0.0 mm/hr 0.00 in0.0 mm
05:28 AM 26.1°F-3.3°C 15.8°F-9.0°C 65% 0.2 mph NE0.3 kmh NE 2.5 mph4.0 kmh 30.20 in1022.7 mb 0.00 in0.0 mm 0.00 in/hr0.0 mm/hr 0.00 in0.0 mm
05:23 AM 26.1°F-3.3°C 15.8°F-9.0°C 65% 1.8 mph NE2.9 kmh NE 2.5 mph4.0 kmh 30.20 in1022.7 mb 0.00 in0.0 mm 0.00 in/hr0.0 mm/hr 0.00 in0.0 mm
05:18 AM 25.7°F-3.5°C 15.6°F-9.1°C 65% 0.4 mph NNE0.6 kmh NNE 1.6 mph2.6 kmh 30.20 in1022.7 mb 0.00 in0.0 mm 0.00 in/hr0.0 mm/hr 0.00 in0.0 mm
05:13 AM 25.9°F-3.4°C 15.7°F-9.1°C 65% Calm Calm 0.2 mph0.3 kmh 30.20 in1022.7 mb 0.00 in0.0 mm 0.00 in/hr0.0 mm/hr 0.00 in0.0 mm
05:08 AM 25.9°F-3.4°C 15.7°F-9.1°C 65% Calm Calm 0.2 mph0.3 kmh 30.20 in1022.7 mb 0.00 in0.0 mm 0.00 in/hr0.0 mm/hr 0.00 in0.0 mm
05:03 AM 26.1°F-3.3°C 15.5°F-9.2°C 64% 0.2 mph 0.3 kmh 1.6 mph2.6 kmh 30.20 in1022.7 mb 0.00 in0.0 mm 0.00 in/hr0.0 mm/hr 0.00 in0.0 mm
04:57 AM 26.1°F-3.3°C 15.5°F-9.2°C 64% 0.9 mph NNE1.4 kmh NNE 2.5 mph4.0 kmh 30.20 in1022.7 mb 0.00 in0.0 mm 0.00 in/hr0.0 mm/hr 0.00 in0.0 mm
04:52 AM 25.9°F-3.4°C 15.7°F-9.1°C 65% 1.6 mph NNE2.6 kmh NNE 2.7 mph4.3 kmh 30.20 in1022.7 mb 0.00 in0.0 mm 0.00 in/hr0.0 mm/hr 0.00 in0.0 mm
04:47 AM 25.9°F-3.4°C 16.0°F-8.9°C 66% 2.2 mph ENE3.5 kmh ENE 3.4 mph5.5 kmh 30.20 in1022.7 mb 0.00 in0.0 mm 0.00 in/hr0.0 mm/hr 0.00 in0.0 mm
04:43 AM 25.9°F-3.4°C 16.0°F-8.9°C 66% 3.1 mph ENE5.0 kmh ENE 4.3 mph6.9 kmh 30.21 in1023.0 mb 0.00 in0.0 mm 0.00 in/hr0.0 mm/hr 0.00 in0.0 mm
04:38 AM 25.9°F-3.4°C 16.0°F-8.9°C 66% 2.9 mph E4.7 kmh E 4.5 mph7.2 kmh 30.21 in1023.0 mb 0.00 in0.0 mm 0.00 in/hr0.0 mm/hr 0.00 in0.0 mm
04:33 AM 26.1°F-3.3°C 15.5°F-9.2°C 64% 4.3 mph E6.9 kmh E 4.5 mph7.2 kmh 30.21 in1023.0 mb 0.00 in0.0 mm 0.00 in/hr0.0 mm/hr 0.00 in0.0 mm
04:28 AM 26.3°F-3.2°C 15.3°F-9.3°C 63% 3.9 mph E6.3 kmh E 4.5 mph7.2 kmh 30.21 in1023.0 mb 0.00 in0.0 mm 0.00 in/hr0.0 mm/hr 0.00 in0.0 mm
04:23 AM 26.5°F-3.1°C 15.5°F-9.2°C 63% 3.7 mph E6.0 kmh E 4.0 mph6.4 kmh 30.21 in1023.0 mb 0.00 in0.0 mm 0.00 in/hr0.0 mm/hr 0.00 in0.0 mm
04:18 AM 27.0°F-2.8°C 15.7°F-9.1°C 62% 2.0 mph ESE3.2 kmh ESE 2.5 mph4.0 kmh 30.21 in1023.0 mb 0.00 in0.0 mm 0.00 in/hr0.0 mm/hr 0.00 in0.0 mm
04:13 AM 27.2°F-2.7°C 15.8°F-9.0°C 62% 2.2 mph E3.5 kmh E 2.5 mph4.0 kmh 30.21 in1023.0 mb 0.00 in0.0 mm 0.00 in/hr0.0 mm/hr 0.00 in0.0 mm
04:08 AM 27.4°F-2.6°C 16.0°F-8.9°C 62% 0.4 mph E0.6 kmh E 0.4 mph0.6 kmh 30.21 in1023.0 mb 0.00 in0.0 mm 0.00 in/hr0.0 mm/hr 0.00 in0.0 mm
04:03 AM 27.4°F-2.6°C 16.0°F-8.9°C 62% 0.2 mph 0.3 kmh 3.4 mph5.5 kmh 30.21 in1023.0 mb 0.00 in0.0 mm 0.00 in/hr0.0 mm/hr 0.00 in0.0 mm
03:57 AM 27.4°F-2.6°C 16.0°F-8.9°C 62% 2.0 mph 3.2 kmh 3.4 mph5.5 kmh 30.21 in1023.0 mb 0.00 in0.0 mm 0.00 in/hr0.0 mm/hr 0.00 in0.0 mm
03:52 AM 27.4°F-2.6°C 16.0°F-8.9°C 62% 1.1 mph NE1.8 kmh NE 1.1 mph1.8 kmh 30.21 in1023.0 mb 0.00 in0.0 mm 0.00 in/hr0.0 mm/hr 0.00 in0.0 mm
03:47 AM 27.7°F-2.4°C 16.4°F-8.7°C 62% Calm Calm 0.4 mph0.6 kmh 30.21 in1023.0 mb 0.00 in0.0 mm 0.00 in/hr0.0 mm/hr 0.00 in0.0 mm
03:42 AM 27.7°F-2.4°C 16.4°F-8.7°C 62% Calm Calm 0.4 mph0.6 kmh 30.21 in1023.0 mb 0.00 in0.0 mm 0.00 in/hr0.0 mm/hr 0.00 in0.0 mm
03:37 AM 28.1°F-2.2°C 16.7°F-8.5°C 62% Calm Calm 0.2 mph0.3 kmh 30.21 in1023.0 mb 0.00 in0.0 mm 0.00 in/hr0.0 mm/hr 0.00 in0.0 mm
03:32 AM 28.4°F-2.0°C 17.1°F-8.3°C 62% Calm Calm 1.1 mph1.8 kmh 30.21 in1023.0 mb 0.00 in0.0 mm 0.00 in/hr0.0 mm/hr 0.00 in0.0 mm
03:27 AM 28.6°F-1.9°C 17.3°F-8.2°C 62% Calm Calm 4.5 mph7.2 kmh 30.22 in1023.4 mb 0.00 in0.0 mm 0.00 in/hr0.0 mm/hr 0.00 in0.0 mm
03:22 AM 28.8°F-1.8°C 17.5°F-8.1°C 62% 2.8 mph 4.5 kmh 4.9 mph7.9 kmh 30.21 in1023.0 mb 0.00 in0.0 mm 0.00 in/hr0.0 mm/hr 0.00 in0.0 mm
03:17 AM 28.6°F-1.9°C 17.3°F-8.2°C 62% 1.7 mph N2.7 kmh N 4.9 mph7.9 kmh 30.21 in1023.0 mb 0.00 in0.0 mm 0.00 in/hr0.0 mm/hr 0.00 in0.0 mm
03:13 AM 28.4°F-2.0°C 17.1°F-8.3°C 62% 4.8 mph NNE7.7 kmh NNE 4.9 mph7.9 kmh 30.22 in1023.4 mb 0.00 in0.0 mm 0.00 in/hr0.0 mm/hr 0.00 in0.0 mm
03:08 AM 28.1°F-2.2°C 16.0°F-8.9°C 60% 0.7 mph N1.1 kmh N 1.1 mph1.8 kmh 30.22 in1023.4 mb 0.00 in0.0 mm 0.00 in/hr0.0 mm/hr 0.00 in0.0 mm
03:03 AM 28.3°F-2.1°C 16.2°F-8.8°C 60% Calm Calm 0.4 mph0.6 kmh 30.21 in1023.0 mb 0.00 in0.0 mm 0.00 in/hr0.0 mm/hr 0.00 in0.0 mm
02:57 AM 28.4°F-2.0°C 16.4°F-8.7°C 60% Calm Calm 0.4 mph0.6 kmh 30.22 in1023.4 mb 0.00 in0.0 mm 0.00 in/hr0.0 mm/hr 0.00 in0.0 mm
02:52 AM 29.0°F-1.7°C 17.2°F-8.2°C 61% 0.2 mph WSW0.3 kmh WSW 0.2 mph0.3 kmh 30.21 in1023.0 mb 0.00 in0.0 mm 0.00 in/hr0.0 mm/hr 0.00 in0.0 mm
02:47 AM 29.3°F-1.5°C 17.6°F-8.0°C 61% Calm Calm 3.1 mph5.0 kmh 30.21 in1023.0 mb 0.00 in0.0 mm 0.00 in/hr0.0 mm/hr 0.00 in0.0 mm
02:42 AM 29.7°F-1.3°C 17.9°F-7.8°C 61% 0.4 mph SE0.6 kmh SE 3.1 mph5.0 kmh 30.21 in1023.0 mb 0.00 in0.0 mm 0.00 in/hr0.0 mm/hr 0.00 in0.0 mm
02:37 AM 30.1°F-1.1°C 18.5°F-7.5°C 62% 1.0 mph SSW1.6 kmh SSW 1.8 mph2.9 kmh 30.22 in1023.4 mb 0.00 in0.0 mm 0.00 in/hr0.0 mm/hr 0.00 in0.0 mm
02:32 AM 30.2°F-1.0°C 18.7°F-7.4°C 62% Calm Calm 4.5 mph7.2 kmh 30.22 in1023.4 mb 0.00 in0.0 mm 0.00 in/hr0.0 mm/hr 0.00 in0.0 mm
02:27 AM 30.4°F-0.9°C 19.6°F-6.9°C 64% 3.1 mph NE5.0 kmh NE 4.5 mph7.2 kmh 30.22 in1023.4 mb 0.00 in0.0 mm 0.00 in/hr0.0 mm/hr 0.00 in0.0 mm
02:22 AM 30.2°F-1.0°C 18.7°F-7.4°C 62% 3.4 mph NNE5.5 kmh NNE 6.0 mph9.7 kmh 30.21 in1023.0 mb 0.00 in0.0 mm 0.00 in/hr0.0 mm/hr 0.00 in0.0 mm
02:17 AM 30.2°F-1.0°C 18.7°F-7.4°C 62% 3.7 mph NE6.0 kmh NE 6.7 mph10.8 kmh 30.22 in1023.4 mb 0.00 in0.0 mm 0.00 in/hr0.0 mm/hr 0.00 in0.0 mm
02:12 AM 30.2°F-1.0°C 18.0°F-7.8°C 60% 6.7 mph 10.8 kmh 6.7 mph10.8 kmh 30.22 in1023.4 mb 0.00 in0.0 mm 0.00 in/hr0.0 mm/hr 0.00 in0.0 mm
02:07 AM 30.6°F-0.8°C 17.9°F-7.8°C 59% 3.2 mph 5.1 kmh 5.1 mph8.2 kmh 30.22 in1023.4 mb 0.00 in0.0 mm 0.00 in/hr0.0 mm/hr 0.00 in0.0 mm
02:02 AM 30.6°F-0.8°C 17.9°F-7.8°C 59% 2.3 mph NE3.7 kmh NE 5.1 mph8.2 kmh 30.21 in1023.0 mb 0.00 in0.0 mm 0.00 in/hr0.0 mm/hr 0.00 in0.0 mm
01:57 AM 30.8°F-0.7°C 18.1°F-7.7°C 59% 3.9 mph 6.3 kmh 4.0 mph6.4 kmh 30.22 in1023.4 mb 0.00 in0.0 mm 0.00 in/hr0.0 mm/hr 0.00 in0.0 mm
01:52 AM 30.8°F-0.7°C 18.5°F-7.5°C 60% 2.8 mph ENE4.5 kmh ENE 4.3 mph6.9 kmh 30.21 in1023.0 mb 0.00 in0.0 mm 0.00 in/hr0.0 mm/hr 0.00 in0.0 mm
01:47 AM 30.6°F-0.8°C 17.9°F-7.8°C 59% 2.5 mph NE4.0 kmh NE 4.3 mph6.9 kmh 30.21 in1023.0 mb 0.00 in0.0 mm 0.00 in/hr0.0 mm/hr 0.00 in0.0 mm
01:42 AM 30.4°F-0.9°C 16.9°F-8.4°C 57% 1.8 mph 2.9 kmh 2.5 mph4.0 kmh 30.21 in1023.0 mb 0.00 in0.0 mm 0.00 in/hr0.0 mm/hr 0.00 in0.0 mm
01:37 AM 30.4°F-0.9°C 16.9°F-8.4°C 57% 0.4 mph 0.6 kmh 0.9 mph1.4 kmh 30.21 in1023.0 mb 0.00 in0.0 mm 0.00 in/hr0.0 mm/hr 0.00 in0.0 mm
01:32 AM 30.6°F-0.8°C 16.7°F-8.5°C 56% Calm Calm 2.0 mph3.2 kmh 30.21 in1023.0 mb 0.00 in0.0 mm 0.00 in/hr0.0 mm/hr 0.00 in0.0 mm
01:27 AM 30.8°F-0.7°C 16.8°F-8.4°C 56% 1.9 mph 3.1 kmh 2.5 mph4.0 kmh 30.21 in1023.0 mb 0.00 in0.0 mm 0.00 in/hr0.0 mm/hr 0.00 in0.0 mm
01:22 AM 31.0°F-0.6°C 17.0°F-8.3°C 56% 1.1 mph N1.8 kmh N 2.9 mph4.7 kmh 30.21 in1023.0 mb 0.00 in0.0 mm 0.00 in/hr0.0 mm/hr 0.00 in0.0 mm
01:17 AM 31.0°F-0.6°C 16.7°F-8.5°C 55% 2.7 mph NNE4.3 kmh NNE 3.1 mph5.0 kmh 30.21 in1023.0 mb 0.00 in0.0 mm 0.00 in/hr0.0 mm/hr 0.00 in0.0 mm
01:12 AM 31.1°F-0.5°C 16.4°F-8.7°C 54% 2.7 mph 4.3 kmh 3.1 mph5.0 kmh 30.21 in1023.0 mb 0.00 in0.0 mm 0.00 in/hr0.0 mm/hr 0.00 in0.0 mm
01:07 AM 31.5°F-0.3°C 16.8°F-8.4°C 54% 0.7 mph 1.1 kmh 0.7 mph1.1 kmh 30.22 in1023.4 mb 0.00 in0.0 mm 0.00 in/hr0.0 mm/hr 0.00 in0.0 mm
01:02 AM 31.9°F-0.1°C 16.7°F-8.5°C 53% Calm Calm 0.4 mph0.6 kmh 30.22 in1023.4 mb 0.00 in0.0 mm 0.00 in/hr0.0 mm/hr 0.00 in0.0 mm
12:57 AM 32.2°F0.1°C 17.4°F-8.1°C 54% Calm Calm 0.4 mph0.6 kmh 30.22 in1023.4 mb 0.00 in0.0 mm 0.00 in/hr0.0 mm/hr 0.00 in0.0 mm
12:52 AM 32.8°F0.4°C 17.8°F-7.9°C 54% Calm Calm 0.2 mph0.3 kmh 30.22 in1023.4 mb 0.00 in0.0 mm 0.00 in/hr0.0 mm/hr 0.00 in0.0 mm
12:47 AM 33.5°F0.8°C 18.6°F-7.4°C 54% 0.2 mph SE0.3 kmh SE 2.7 mph4.3 kmh 30.22 in1023.4 mb 0.00 in0.0 mm 0.00 in/hr0.0 mm/hr 0.00 in0.0 mm
12:42 AM 33.8°F1.0°C 19.3°F-7.1°C 55% Calm Calm 4.0 mph6.4 kmh 30.22 in1023.4 mb 0.00 in0.0 mm 0.00 in/hr0.0 mm/hr 0.00 in0.0 mm
12:37 AM 34.2°F1.2°C 19.6°F-6.9°C 55% 2.7 mph NE4.3 kmh NE 4.0 mph6.4 kmh 30.22 in1023.4 mb 0.00 in0.0 mm 0.00 in/hr0.0 mm/hr 0.00 in0.0 mm
12:32 AM 34.4°F1.3°C 20.3°F-6.5°C 56% 3.5 mph NE5.6 kmh NE 4.0 mph6.4 kmh 30.22 in1023.4 mb 0.00 in0.0 mm 0.00 in/hr0.0 mm/hr 0.00 in0.0 mm
12:27 AM 34.2°F1.2°C 20.1°F-6.6°C 56% 2.5 mph NE4.0 kmh NE 3.4 mph5.5 kmh 30.22 in1023.4 mb 0.00 in0.0 mm 0.00 in/hr0.0 mm/hr 0.00 in0.0 mm
12:22 AM 33.7°F0.9°C 19.1°F-7.2°C 55% 1.8 mph NNE2.9 kmh NNE 4.0 mph6.4 kmh 30.22 in1023.4 mb 0.00 in0.0 mm 0.00 in/hr0.0 mm/hr 0.00 in0.0 mm
12:17 AM 33.7°F0.9°C 19.1°F-7.2°C 55% 2.3 mph N3.7 kmh N 4.0 mph6.4 kmh 30.21 in1023.0 mb 0.00 in0.0 mm 0.00 in/hr0.0 mm/hr 0.00 in0.0 mm
12:12 AM 34.0°F1.1°C 19.9°F-6.7°C 56% 1.2 mph 1.9 kmh 4.7 mph7.6 kmh 30.22 in1023.4 mb 0.00 in0.0 mm 0.00 in/hr0.0 mm/hr 0.00 in0.0 mm
12:07 AM 33.8°F1.0°C 20.2°F-6.6°C 57% 4.5 mph NNE7.2 kmh NNE 4.7 mph7.6 kmh 30.21 in1023.0 mb 0.00 in0.0 mm 0.00 in/hr0.0 mm/hr 0.00 in0.0 mm
12:02 AM 33.8°F1.0°C 19.3°F-7.1°C 55% 4.3 mph N6.9 kmh N 4.7 mph7.6 kmh 30.21 in1023.0 mb 0.00 in0.0 mm 0.00 in/hr0.0 mm/hr 0.00 in0.0 mm